sensor_id;sensor_type;location;lat;lon;timestamp;P1;durP1;ratioP1;P2;durP2;ratioP2
66559;SDS011;53413;49.878;8.142;2022-07-29T00:00:28;7.37;;;3.27;;
66559;SDS011;53413;49.878;8.142;2022-07-29T00:02:53;6.57;;;3.15;;
66559;SDS011;53413;49.878;8.142;2022-07-29T00:05:19;7.77;;;3.03;;
66559;SDS011;53413;49.878;8.142;2022-07-29T00:07:44;6.23;;;3.10;;
66559;SDS011;53413;49.878;8.142;2022-07-29T00:10:10;7.40;;;3.20;;
66559;SDS011;53413;49.878;8.142;2022-07-29T00:12:35;6.03;;;2.90;;
66559;SDS011;53413;49.878;8.142;2022-07-29T00:15:00;6.53;;;2.95;;
66559;SDS011;53413;49.878;8.142;2022-07-29T00:17:26;8.40;;;3.20;;
66559;SDS011;53413;49.878;8.142;2022-07-29T00:19:52;7.10;;;3.10;;
66559;SDS011;53413;49.878;8.142;2022-07-29T00:22:18;6.63;;;3.42;;
66559;SDS011;53413;49.878;8.142;2022-07-29T00:24:44;7.20;;;3.50;;
66559;SDS011;53413;49.878;8.142;2022-07-29T00:27:09;7.73;;;3.30;;
66559;SDS011;53413;49.878;8.142;2022-07-29T00:29:34;6.10;;;2.80;;
66559;SDS011;53413;49.878;8.142;2022-07-29T00:32:00;6.73;;;3.20;;
66559;SDS011;53413;49.878;8.142;2022-07-29T00:34:25;6.63;;;3.20;;
66559;SDS011;53413;49.878;8.142;2022-07-29T00:37:09;7.10;;;3.30;;
66559;SDS011;53413;49.878;8.142;2022-07-29T00:39:34;8.98;;;3.20;;
66559;SDS011;53413;49.878;8.142;2022-07-29T00:42:02;7.50;;;3.40;;
66559;SDS011;53413;49.878;8.142;2022-07-29T00:44:28;9.73;;;4.20;;
66559;SDS011;53413;49.878;8.142;2022-07-29T00:46:54;8.73;;;3.33;;
66559;SDS011;53413;49.878;8.142;2022-07-29T00:49:19;11.57;;;4.03;;
66559;SDS011;53413;49.878;8.142;2022-07-29T00:51:44;7.50;;;3.63;;
66559;SDS011;53413;49.878;8.142;2022-07-29T00:54:10;8.23;;;3.72;;
66559;SDS011;53413;49.878;8.142;2022-07-29T00:56:35;8.30;;;3.83;;
66559;SDS011;53413;49.878;8.142;2022-07-29T00:59:01;10.97;;;4.50;;
66559;SDS011;53413;49.878;8.142;2022-07-29T01:01:27;8.68;;;4.30;;
66559;SDS011;53413;49.878;8.142;2022-07-29T01:03:53;8.90;;;4.30;;
66559;SDS011;53413;49.878;8.142;2022-07-29T01:06:19;8.05;;;3.67;;
66559;SDS011;53413;49.878;8.142;2022-07-29T01:08:45;10.75;;;4.20;;
66559;SDS011;53413;49.878;8.142;2022-07-29T01:11:14;6.67;;;3.40;;
66559;SDS011;53413;49.878;8.142;2022-07-29T01:13:41;5.90;;;3.03;;
66559;SDS011;53413;49.878;8.142;2022-07-29T01:16:21;8.00;;;3.17;;
66559;SDS011;53413;49.878;8.142;2022-07-29T01:18:56;8.60;;;3.70;;
66559;SDS011;53413;49.878;8.142;2022-07-29T01:21:39;9.82;;;4.03;;
66559;SDS011;53413;49.878;8.142;2022-07-29T01:29:41;8.55;;;3.40;;
66559;SDS011;53413;49.878;8.142;2022-07-29T01:32:15;7.95;;;3.70;;
66559;SDS011;53413;49.878;8.142;2022-07-29T01:37:39;6.77;;;3.43;;
66559;SDS011;53413;49.878;8.142;2022-07-29T01:40:19;6.38;;;2.85;;
66559;SDS011;53413;49.878;8.142;2022-07-29T01:42:50;7.72;;;3.50;;
66559;SDS011;53413;49.878;8.142;2022-07-29T01:50:54;7.60;;;3.80;;
66559;SDS011;53413;49.878;8.142;2022-07-29T01:53:29;7.30;;;3.90;;
66559;SDS011;53413;49.878;8.142;2022-07-29T01:56:19;9.65;;;3.95;;
66559;SDS011;53413;49.878;8.142;2022-07-29T01:58:48;7.20;;;3.88;;
66559;SDS011;53413;49.878;8.142;2022-07-29T02:01:17;9.00;;;4.00;;
66559;SDS011;53413;49.878;8.142;2022-07-29T02:03:44;8.73;;;4.00;;
66559;SDS011;53413;49.878;8.142;2022-07-29T02:06:11;10.00;;;4.10;;
66559;SDS011;53413;49.878;8.142;2022-07-29T02:08:40;7.00;;;3.55;;
66559;SDS011;53413;49.878;8.142;2022-07-29T02:11:07;7.72;;;4.10;;
66559;SDS011;53413;49.878;8.142;2022-07-29T02:13:34;7.77;;;4.30;;
66559;SDS011;53413;49.878;8.142;2022-07-29T02:16:02;7.78;;;3.88;;
66559;SDS011;53413;49.878;8.142;2022-07-29T02:18:31;8.02;;;4.35;;
66559;SDS011;53413;49.878;8.142;2022-07-29T02:21:00;6.55;;;3.50;;
66559;SDS011;53413;49.878;8.142;2022-07-29T02:23:27;7.53;;;4.38;;
66559;SDS011;53413;49.878;8.142;2022-07-29T02:25:56;7.70;;;4.22;;
66559;SDS011;53413;49.878;8.142;2022-07-29T02:28:23;8.60;;;4.68;;
66559;SDS011;53413;49.878;8.142;2022-07-29T02:30:50;9.45;;;4.55;;
66559;SDS011;53413;49.878;8.142;2022-07-29T02:33:18;8.00;;;3.90;;
66559;SDS011;53413;49.878;8.142;2022-07-29T02:35:45;8.73;;;3.90;;
66559;SDS011;53413;49.878;8.142;2022-07-29T02:38:12;10.73;;;4.00;;
66559;SDS011;53413;49.878;8.142;2022-07-29T02:40:58;6.82;;;3.72;;
66559;SDS011;53413;49.878;8.142;2022-07-29T02:43:26;9.77;;;4.00;;
66559;SDS011;53413;49.878;8.142;2022-07-29T02:45:52;9.05;;;3.70;;
66559;SDS011;53413;49.878;8.142;2022-07-29T02:48:21;10.02;;;3.70;;
66559;SDS011;53413;49.878;8.142;2022-07-29T02:50:54;7.22;;;3.30;;
66559;SDS011;53413;49.878;8.142;2022-07-29T02:53:26;6.35;;;3.70;;
66559;SDS011;53413;49.878;8.142;2022-07-29T02:55:55;8.45;;;3.90;;
66559;SDS011;53413;49.878;8.142;2022-07-29T02:58:27;6.80;;;3.97;;
66559;SDS011;53413;49.878;8.142;2022-07-29T03:00:56;8.35;;;4.20;;
66559;SDS011;53413;49.878;8.142;2022-07-29T03:03:24;8.70;;;4.40;;
66559;SDS011;53413;49.878;8.142;2022-07-29T03:05:56;8.68;;;4.97;;
66559;SDS011;53413;49.878;8.142;2022-07-29T03:08:24;11.27;;;6.20;;
66559;SDS011;53413;49.878;8.142;2022-07-29T03:10:52;9.35;;;4.93;;
66559;SDS011;53413;49.878;8.142;2022-07-29T03:13:18;8.07;;;4.68;;
66559;SDS011;53413;49.878;8.142;2022-07-29T03:15:44;10.30;;;4.87;;
66559;SDS011;53413;49.878;8.142;2022-07-29T03:18:11;9.57;;;4.28;;
66559;SDS011;53413;49.878;8.142;2022-07-29T03:20:37;8.98;;;4.40;;
66559;SDS011;53413;49.878;8.142;2022-07-29T03:23:03;9.50;;;5.15;;
66559;SDS011;53413;49.878;8.142;2022-07-29T03:25:29;9.83;;;5.60;;
66559;SDS011;53413;49.878;8.142;2022-07-29T03:27:54;10.57;;;4.80;;
66559;SDS011;53413;49.878;8.142;2022-07-29T03:30:21;8.98;;;4.75;;
66559;SDS011;53413;49.878;8.142;2022-07-29T03:32:46;9.17;;;5.20;;
66559;SDS011;53413;49.878;8.142;2022-07-29T03:35:12;9.87;;;5.70;;
66559;SDS011;53413;49.878;8.142;2022-07-29T03:37:37;8.63;;;4.20;;
66559;SDS011;53413;49.878;8.142;2022-07-29T03:40:04;10.13;;;5.33;;
66559;SDS011;53413;49.878;8.142;2022-07-29T03:42:32;6.70;;;3.85;;
66559;SDS011;53413;49.878;8.142;2022-07-29T03:45:03;7.78;;;3.97;;
66559;SDS011;53413;49.878;8.142;2022-07-29T03:47:31;8.73;;;4.47;;
66559;SDS011;53413;49.878;8.142;2022-07-29T03:50:02;8.13;;;4.15;;
66559;SDS011;53413;49.878;8.142;2022-07-29T03:52:31;9.10;;;4.28;;
66559;SDS011;53413;49.878;8.142;2022-07-29T03:54:58;7.20;;;3.80;;
66559;SDS011;53413;49.878;8.142;2022-07-29T03:57:24;7.00;;;4.00;;
66559;SDS011;53413;49.878;8.142;2022-07-29T03:59:52;7.40;;;4.07;;
66559;SDS011;53413;49.878;8.142;2022-07-29T04:02:18;7.18;;;3.85;;
66559;SDS011;53413;49.878;8.142;2022-07-29T04:04:44;10.40;;;4.20;;
66559;SDS011;53413;49.878;8.142;2022-07-29T04:07:14;10.05;;;4.20;;
66559;SDS011;53413;49.878;8.142;2022-07-29T04:09:40;8.05;;;4.18;;
66559;SDS011;53413;49.878;8.142;2022-07-29T04:12:06;9.32;;;4.50;;
66559;SDS011;53413;49.878;8.142;2022-07-29T04:14:31;11.43;;;5.13;;
66559;SDS011;53413;49.878;8.142;2022-07-29T04:16:57;8.02;;;4.53;;
66559;SDS011;53413;49.878;8.142;2022-07-29T04:19:23;8.43;;;4.47;;
66559;SDS011;53413;49.878;8.142;2022-07-29T04:21:48;7.70;;;4.43;;
66559;SDS011;53413;49.878;8.142;2022-07-29T04:24:14;10.10;;;4.50;;
66559;SDS011;53413;49.878;8.142;2022-07-29T04:26:39;7.53;;;4.10;;
66559;SDS011;53413;49.878;8.142;2022-07-29T04:29:05;9.77;;;4.57;;
66559;SDS011;53413;49.878;8.142;2022-07-29T04:31:30;8.23;;;4.23;;
66559;SDS011;53413;49.878;8.142;2022-07-29T04:33:55;8.18;;;4.35;;
66559;SDS011;53413;49.878;8.142;2022-07-29T04:36:21;10.17;;;4.33;;
66559;SDS011;53413;49.878;8.142;2022-07-29T04:38:46;7.60;;;4.23;;
66559;SDS011;53413;49.878;8.142;2022-07-29T04:41:11;7.53;;;4.43;;
66559;SDS011;53413;49.878;8.142;2022-07-29T04:43:37;7.57;;;4.40;;
66559;SDS011;53413;49.878;8.142;2022-07-29T04:46:03;9.63;;;4.20;;
66559;SDS011;53413;49.878;8.142;2022-07-29T04:48:29;8.57;;;4.15;;
66559;SDS011;53413;49.878;8.142;2022-07-29T04:50:55;9.32;;;4.78;;
66559;SDS011;53413;49.878;8.142;2022-07-29T04:53:21;7.40;;;4.10;;
66559;SDS011;53413;49.878;8.142;2022-07-29T04:55:47;7.57;;;4.23;;
66559;SDS011;53413;49.878;8.142;2022-07-29T04:58:12;8.40;;;4.27;;
66559;SDS011;53413;49.878;8.142;2022-07-29T05:00:38;7.90;;;4.20;;
66559;SDS011;53413;49.878;8.142;2022-07-29T05:03:04;8.77;;;4.10;;
66559;SDS011;53413;49.878;8.142;2022-07-29T05:05:29;9.53;;;4.30;;
66559;SDS011;53413;49.878;8.142;2022-07-29T05:07:55;8.68;;;4.05;;
66559;SDS011;53413;49.878;8.142;2022-07-29T05:10:21;7.47;;;4.13;;
66559;SDS011;53413;49.878;8.142;2022-07-29T05:12:47;9.25;;;4.57;;
66559;SDS011;53413;49.878;8.142;2022-07-29T05:15:12;8.60;;;4.77;;
66559;SDS011;53413;49.878;8.142;2022-07-29T05:17:38;8.68;;;4.68;;
66559;SDS011;53413;49.878;8.142;2022-07-29T05:20:04;7.50;;;4.20;;
66559;SDS011;53413;49.878;8.142;2022-07-29T05:22:30;10.20;;;4.72;;
66559;SDS011;53413;49.878;8.142;2022-07-29T05:24:55;8.93;;;4.93;;
66559;SDS011;53413;49.878;8.142;2022-07-29T05:27:21;9.50;;;4.90;;
66559;SDS011;53413;49.878;8.142;2022-07-29T05:29:46;8.05;;;4.53;;
66559;SDS011;53413;49.878;8.142;2022-07-29T05:32:12;9.00;;;4.53;;
66559;SDS011;53413;49.878;8.142;2022-07-29T05:34:38;8.57;;;4.88;;
66559;SDS011;53413;49.878;8.142;2022-07-29T05:37:03;8.87;;;4.50;;
66559;SDS011;53413;49.878;8.142;2022-07-29T05:39:29;8.23;;;4.50;;
66559;SDS011;53413;49.878;8.142;2022-07-29T05:41:54;9.20;;;4.78;;
66559;SDS011;53413;49.878;8.142;2022-07-29T05:44:20;7.55;;;4.68;;
66559;SDS011;53413;49.878;8.142;2022-07-29T05:46:45;9.37;;;4.17;;
66559;SDS011;53413;49.878;8.142;2022-07-29T05:49:11;7.40;;;3.83;;
66559;SDS011;53413;49.878;8.142;2022-07-29T05:51:36;8.20;;;3.80;;
66559;SDS011;53413;49.878;8.142;2022-07-29T05:54:02;8.87;;;3.67;;
66559;SDS011;53413;49.878;8.142;2022-07-29T05:56:27;7.03;;;3.50;;
66559;SDS011;53413;49.878;8.142;2022-07-29T05:58:53;6.37;;;3.30;;
66559;SDS011;53413;49.878;8.142;2022-07-29T06:01:19;7.40;;;3.70;;
66559;SDS011;53413;49.878;8.142;2022-07-29T06:03:44;7.53;;;4.13;;
66559;SDS011;53413;49.878;8.142;2022-07-29T06:06:10;8.68;;;4.30;;
66559;SDS011;53413;49.878;8.142;2022-07-29T06:08:36;8.30;;;4.10;;
66559;SDS011;53413;49.878;8.142;2022-07-29T06:11:02;8.10;;;3.80;;
66559;SDS011;53413;49.878;8.142;2022-07-29T06:13:28;6.30;;;3.55;;
66559;SDS011;53413;49.878;8.142;2022-07-29T06:15:53;6.67;;;3.50;;
66559;SDS011;53413;49.878;8.142;2022-07-29T06:18:19;6.87;;;3.57;;
66559;SDS011;53413;49.878;8.142;2022-07-29T06:20:46;7.68;;;3.50;;
66559;SDS011;53413;49.878;8.142;2022-07-29T06:23:11;7.25;;;3.72;;
66559;SDS011;53413;49.878;8.142;2022-07-29T06:25:37;7.93;;;3.60;;
66559;SDS011;53413;49.878;8.142;2022-07-29T06:28:05;7.03;;;3.50;;
66559;SDS011;53413;49.878;8.142;2022-07-29T06:30:31;6.68;;;3.30;;
66559;SDS011;53413;49.878;8.142;2022-07-29T06:32:56;6.93;;;3.87;;
66559;SDS011;53413;49.878;8.142;2022-07-29T06:35:22;8.00;;;3.97;;
66559;SDS011;53413;49.878;8.142;2022-07-29T06:37:47;6.65;;;3.40;;
66559;SDS011;53413;49.878;8.142;2022-07-29T06:40:12;6.37;;;3.73;;
66559;SDS011;53413;49.878;8.142;2022-07-29T06:42:56;8.90;;;3.78;;
66559;SDS011;53413;49.878;8.142;2022-07-29T06:45:22;6.07;;;3.57;;
66559;SDS011;53413;49.878;8.142;2022-07-29T06:47:49;6.05;;;3.47;;
66559;SDS011;53413;49.878;8.142;2022-07-29T06:50:14;6.90;;;3.50;;
66559;SDS011;53413;49.878;8.142;2022-07-29T06:52:40;6.00;;;3.63;;
66559;SDS011;53413;49.878;8.142;2022-07-29T06:55:06;5.90;;;3.40;;
66559;SDS011;53413;49.878;8.142;2022-07-29T06:57:32;7.88;;;3.28;;
66559;SDS011;53413;49.878;8.142;2022-07-29T06:59:58;6.57;;;3.53;;
66559;SDS011;53413;49.878;8.142;2022-07-29T07:02:23;7.30;;;3.50;;
66559;SDS011;53413;49.878;8.142;2022-07-29T07:04:49;6.73;;;3.53;;
66559;SDS011;53413;49.878;8.142;2022-07-29T07:07:14;7.57;;;3.60;;
66559;SDS011;53413;49.878;8.142;2022-07-29T07:09:39;5.87;;;3.30;;
66559;SDS011;53413;49.878;8.142;2022-07-29T07:12:05;5.97;;;3.63;;
66559;SDS011;53413;49.878;8.142;2022-07-29T07:14:31;6.77;;;3.93;;
66559;SDS011;53413;49.878;8.142;2022-07-29T07:16:56;7.95;;;3.65;;
66559;SDS011;53413;49.878;8.142;2022-07-29T07:19:21;6.73;;;3.40;;
66559;SDS011;53413;49.878;8.142;2022-07-29T07:21:47;6.37;;;3.70;;
66559;SDS011;53413;49.878;8.142;2022-07-29T07:24:12;6.47;;;3.70;;
66559;SDS011;53413;49.878;8.142;2022-07-29T07:26:37;6.33;;;3.73;;
66559;SDS011;53413;49.878;8.142;2022-07-29T07:29:04;7.40;;;3.40;;
66559;SDS011;53413;49.878;8.142;2022-07-29T07:31:30;6.53;;;3.73;;
66559;SDS011;53413;49.878;8.142;2022-07-29T07:33:55;6.43;;;3.78;;
66559;SDS011;53413;49.878;8.142;2022-07-29T07:36:21;7.33;;;3.70;;
66559;SDS011;53413;49.878;8.142;2022-07-29T07:38:47;6.45;;;3.60;;
66559;SDS011;53413;49.878;8.142;2022-07-29T07:41:13;5.10;;;3.70;;
66559;SDS011;53413;49.878;8.142;2022-07-29T07:43:38;6.70;;;3.83;;
66559;SDS011;53413;49.878;8.142;2022-07-29T07:46:04;7.27;;;3.70;;
66559;SDS011;53413;49.878;8.142;2022-07-29T07:48:29;6.13;;;3.60;;
66559;SDS011;53413;49.878;8.142;2022-07-29T07:50:54;7.33;;;4.33;;
66559;SDS011;53413;49.878;8.142;2022-07-29T07:53:20;7.90;;;3.88;;
66559;SDS011;53413;49.878;8.142;2022-07-29T07:55:46;11.00;;;4.28;;
66559;SDS011;53413;49.878;8.142;2022-07-29T07:58:12;7.17;;;4.03;;
66559;SDS011;53413;49.878;8.142;2022-07-29T08:00:37;6.40;;;4.10;;
66559;SDS011;53413;49.878;8.142;2022-07-29T08:03:03;6.00;;;4.07;;
66559;SDS011;53413;49.878;8.142;2022-07-29T08:05:28;6.28;;;4.10;;
66559;SDS011;53413;49.878;8.142;2022-07-29T08:07:54;7.03;;;3.87;;
66559;SDS011;53413;49.878;8.142;2022-07-29T08:10:19;5.10;;;3.67;;
66559;SDS011;53413;49.878;8.142;2022-07-29T08:13:03;5.38;;;3.78;;
66559;SDS011;53413;49.878;8.142;2022-07-29T08:15:32;7.30;;;3.80;;
66559;SDS011;53413;49.878;8.142;2022-07-29T08:17:58;6.47;;;4.10;;
66559;SDS011;53413;49.878;8.142;2022-07-29T08:20:24;7.22;;;4.30;;
66559;SDS011;53413;49.878;8.142;2022-07-29T08:22:49;7.50;;;4.10;;
66559;SDS011;53413;49.878;8.142;2022-07-29T08:25:15;6.87;;;4.40;;
66559;SDS011;53413;49.878;8.142;2022-07-29T08:27:40;7.93;;;4.63;;
66559;SDS011;53413;49.878;8.142;2022-07-29T08:30:06;6.73;;;3.40;;
66559;SDS011;53413;49.878;8.142;2022-07-29T08:32:32;9.70;;;4.57;;
66559;SDS011;53413;49.878;8.142;2022-07-29T08:34:57;5.20;;;4.20;;
66559;SDS011;53413;49.878;8.142;2022-07-29T08:37:22;7.20;;;4.27;;
66559;SDS011;53413;49.878;8.142;2022-07-29T08:39:48;6.60;;;4.20;;
66559;SDS011;53413;49.878;8.142;2022-07-29T08:42:13;10.20;;;4.30;;
66559;SDS011;53413;49.878;8.142;2022-07-29T08:44:41;6.53;;;4.05;;
66559;SDS011;53413;49.878;8.142;2022-07-29T08:47:07;6.35;;;4.40;;
66559;SDS011;53413;49.878;8.142;2022-07-29T08:49:33;6.23;;;4.33;;
66559;SDS011;53413;49.878;8.142;2022-07-29T08:51:59;7.57;;;4.38;;
66559;SDS011;53413;49.878;8.142;2022-07-29T08:54:25;5.90;;;4.82;;
66559;SDS011;53413;49.878;8.142;2022-07-29T08:56:52;7.60;;;4.80;;
66559;SDS011;53413;49.878;8.142;2022-07-29T08:59:19;6.43;;;4.68;;
66559;SDS011;53413;49.878;8.142;2022-07-29T09:01:47;7.70;;;4.95;;
66559;SDS011;53413;49.878;8.142;2022-07-29T09:04:13;6.32;;;4.75;;
66559;SDS011;53413;49.878;8.142;2022-07-29T09:06:43;6.22;;;4.57;;
66559;SDS011;53413;49.878;8.142;2022-07-29T09:09:10;6.23;;;4.23;;
66559;SDS011;53413;49.878;8.142;2022-07-29T09:11:36;6.30;;;4.30;;
66559;SDS011;53413;49.878;8.142;2022-07-29T09:14:02;7.40;;;4.85;;
66559;SDS011;53413;49.878;8.142;2022-07-29T09:16:47;6.07;;;4.50;;
66559;SDS011;53413;49.878;8.142;2022-07-29T09:19:41;6.65;;;5.35;;
66559;SDS011;53413;49.878;8.142;2022-07-29T09:22:06;6.72;;;4.88;;
66559;SDS011;53413;49.878;8.142;2022-07-29T09:27:08;7.07;;;4.10;;
66559;SDS011;53413;49.878;8.142;2022-07-29T09:29:48;5.75;;;3.78;;
66559;SDS011;53413;49.878;8.142;2022-07-29T09:32:21;5.38;;;3.38;;
66559;SDS011;53413;49.878;8.142;2022-07-29T09:34:46;5.47;;;3.47;;
66559;SDS011;53413;49.878;8.142;2022-07-29T09:37:11;6.53;;;3.50;;
66559;SDS011;53413;49.878;8.142;2022-07-29T09:39:51;6.70;;;3.60;;
66559;SDS011;53413;49.878;8.142;2022-07-29T09:42:27;5.22;;;3.60;;
66559;SDS011;53413;49.878;8.142;2022-07-29T09:44:54;7.63;;;4.78;;
66559;SDS011;53413;49.878;8.142;2022-07-29T09:47:19;5.10;;;3.50;;
66559;SDS011;53413;49.878;8.142;2022-07-29T09:52:14;5.10;;;3.37;;
66559;SDS011;53413;49.878;8.142;2022-07-29T09:54:40;7.60;;;4.20;;
66559;SDS011;53413;49.878;8.142;2022-07-29T09:57:07;6.77;;;4.20;;
66559;SDS011;53413;49.878;8.142;2022-07-29T09:59:37;6.72;;;4.15;;
66559;SDS011;53413;49.878;8.142;2022-07-29T10:02:12;8.03;;;3.87;;
66559;SDS011;53413;49.878;8.142;2022-07-29T10:04:39;6.28;;;3.53;;
66559;SDS011;53413;49.878;8.142;2022-07-29T10:07:06;7.40;;;4.20;;
66559;SDS011;53413;49.878;8.142;2022-07-29T10:09:32;8.70;;;3.90;;
66559;SDS011;53413;49.878;8.142;2022-07-29T10:14:34;5.70;;;4.05;;
66559;SDS011;53413;49.878;8.142;2022-07-29T10:17:00;6.38;;;3.70;;
66559;SDS011;53413;49.878;8.142;2022-07-29T10:19:28;8.03;;;3.80;;
66559;SDS011;53413;49.878;8.142;2022-07-29T10:21:56;7.38;;;4.45;;
66559;SDS011;53413;49.878;8.142;2022-07-29T10:24:28;7.53;;;3.75;;
66559;SDS011;53413;49.878;8.142;2022-07-29T10:26:55;6.13;;;3.47;;
66559;SDS011;53413;49.878;8.142;2022-07-29T10:29:22;5.97;;;3.70;;
66559;SDS011;53413;49.878;8.142;2022-07-29T10:31:51;7.83;;;3.83;;
66559;SDS011;53413;49.878;8.142;2022-07-29T10:34:23;6.90;;;3.95;;
66559;SDS011;53413;49.878;8.142;2022-07-29T10:37:19;7.88;;;3.88;;
66559;SDS011;53413;49.878;8.142;2022-07-29T10:43:07;7.25;;;4.10;;
66559;SDS011;53413;49.878;8.142;2022-07-29T10:45:42;6.43;;;3.80;;
66559;SDS011;53413;49.878;8.142;2022-07-29T10:48:10;7.30;;;3.95;;
66559;SDS011;53413;49.878;8.142;2022-07-29T10:50:57;7.40;;;3.93;;
66559;SDS011;53413;49.878;8.142;2022-07-29T10:53:21;8.80;;;3.70;;
66559;SDS011;53413;49.878;8.142;2022-07-29T10:55:48;5.70;;;3.80;;
66559;SDS011;53413;49.878;8.142;2022-07-29T11:00:52;5.78;;;3.55;;
66559;SDS011;53413;49.878;8.142;2022-07-29T11:06:06;8.48;;;3.83;;
66559;SDS011;53413;49.878;8.142;2022-07-29T11:08:32;6.95;;;3.70;;
66559;SDS011;53413;49.878;8.142;2022-07-29T11:13:45;6.60;;;3.70;;
66559;SDS011;53413;49.878;8.142;2022-07-29T11:16:13;5.57;;;3.77;;
66559;SDS011;53413;49.878;8.142;2022-07-29T11:21:36;7.55;;;4.00;;
66559;SDS011;53413;49.878;8.142;2022-07-29T11:24:13;6.45;;;3.80;;
66559;SDS011;53413;49.878;8.142;2022-07-29T11:26:39;6.43;;;3.80;;
66559;SDS011;53413;49.878;8.142;2022-07-29T11:29:21;6.07;;;3.77;;
66559;SDS011;53413;49.878;8.142;2022-07-29T11:31:50;8.05;;;4.03;;
66559;SDS011;53413;49.878;8.142;2022-07-29T11:34:20;6.80;;;3.90;;
66559;SDS011;53413;49.878;8.142;2022-07-29T11:47:32;6.65;;;4.10;;
66559;SDS011;53413;49.878;8.142;2022-07-29T11:49:59;7.53;;;4.30;;
66559;SDS011;53413;49.878;8.142;2022-07-29T11:52:32;7.65;;;4.13;;
66559;SDS011;53413;49.878;8.142;2022-07-29T11:55:03;6.63;;;4.13;;
66559;SDS011;53413;49.878;8.142;2022-07-29T11:57:29;7.32;;;4.05;;
66559;SDS011;53413;49.878;8.142;2022-07-29T11:59:55;7.82;;;4.07;;
66559;SDS011;53413;49.878;8.142;2022-07-29T12:02:22;6.80;;;4.27;;
66559;SDS011;53413;49.878;8.142;2022-07-29T12:04:55;8.73;;;4.45;;
66559;SDS011;53413;49.878;8.142;2022-07-29T12:07:33;6.83;;;4.27;;
66559;SDS011;53413;49.878;8.142;2022-07-29T12:09:59;7.32;;;4.05;;
66559;SDS011;53413;49.878;8.142;2022-07-29T12:12:25;6.95;;;4.18;;
66559;SDS011;53413;49.878;8.142;2022-07-29T12:14:51;6.40;;;3.90;;
66559;SDS011;53413;49.878;8.142;2022-07-29T12:17:26;7.75;;;4.30;;
66559;SDS011;53413;49.878;8.142;2022-07-29T12:19:54;5.90;;;4.00;;
66559;SDS011;53413;49.878;8.142;2022-07-29T12:22:26;9.23;;;4.10;;
66559;SDS011;53413;49.878;8.142;2022-07-29T12:24:54;8.65;;;4.20;;
66559;SDS011;53413;49.878;8.142;2022-07-29T12:27:20;7.25;;;4.00;;
66559;SDS011;53413;49.878;8.142;2022-07-29T12:29:55;6.38;;;4.03;;
66559;SDS011;53413;49.878;8.142;2022-07-29T12:32:22;7.13;;;4.20;;
66559;SDS011;53413;49.878;8.142;2022-07-29T12:34:49;7.45;;;4.10;;
66559;SDS011;53413;49.878;8.142;2022-07-29T12:37:15;6.55;;;4.00;;
66559;SDS011;53413;49.878;8.142;2022-07-29T12:39:41;8.18;;;4.45;;
66559;SDS011;53413;49.878;8.142;2022-07-29T12:42:10;7.47;;;4.33;;
66559;SDS011;53413;49.878;8.142;2022-07-29T12:44:46;7.03;;;4.35;;
66559;SDS011;53413;49.878;8.142;2022-07-29T12:47:13;7.82;;;3.92;;
66559;SDS011;53413;49.878;8.142;2022-07-29T12:49:39;7.05;;;4.25;;
66559;SDS011;53413;49.878;8.142;2022-07-29T12:52:24;6.13;;;4.40;;
66559;SDS011;53413;49.878;8.142;2022-07-29T12:54:49;8.02;;;4.20;;
66559;SDS011;53413;49.878;8.142;2022-07-29T12:57:15;8.83;;;4.37;;
66559;SDS011;53413;49.878;8.142;2022-07-29T12:59:40;8.90;;;4.43;;
66559;SDS011;53413;49.878;8.142;2022-07-29T13:02:06;6.25;;;4.35;;
66559;SDS011;53413;49.878;8.142;2022-07-29T13:04:32;6.20;;;4.47;;
66559;SDS011;53413;49.878;8.142;2022-07-29T13:07:01;6.93;;;4.18;;
66559;SDS011;53413;49.878;8.142;2022-07-29T13:09:39;7.07;;;4.53;;
66559;SDS011;53413;49.878;8.142;2022-07-29T13:12:06;5.15;;;4.10;;
66559;SDS011;53413;49.878;8.142;2022-07-29T13:14:41;6.60;;;4.30;;
66559;SDS011;53413;49.878;8.142;2022-07-29T13:19:44;7.70;;;4.30;;
66559;SDS011;53413;49.878;8.142;2022-07-29T13:22:15;7.07;;;4.43;;
66559;SDS011;53413;49.878;8.142;2022-07-29T13:24:49;8.15;;;4.40;;
66559;SDS011;53413;49.878;8.142;2022-07-29T13:27:19;10.48;;;5.03;;
66559;SDS011;53413;49.878;8.142;2022-07-29T13:29:46;7.35;;;4.55;;
66559;SDS011;53413;49.878;8.142;2022-07-29T13:32:12;9.67;;;4.40;;
66559;SDS011;53413;49.878;8.142;2022-07-29T13:34:38;9.07;;;4.60;;
66559;SDS011;53413;49.878;8.142;2022-07-29T13:37:04;8.70;;;4.50;;
66559;SDS011;53413;49.878;8.142;2022-07-29T13:39:30;5.97;;;4.10;;
66559;SDS011;53413;49.878;8.142;2022-07-29T13:41:55;8.60;;;4.30;;
66559;SDS011;53413;49.878;8.142;2022-07-29T13:44:21;8.53;;;4.67;;
66559;SDS011;53413;49.878;8.142;2022-07-29T13:46:46;13.57;;;4.90;;
66559;SDS011;53413;49.878;8.142;2022-07-29T13:49:11;7.60;;;4.53;;
66559;SDS011;53413;49.878;8.142;2022-07-29T13:51:37;8.60;;;4.63;;
66559;SDS011;53413;49.878;8.142;2022-07-29T13:54:03;7.35;;;4.70;;
66559;SDS011;53413;49.878;8.142;2022-07-29T13:56:28;8.07;;;4.40;;
66559;SDS011;53413;49.878;8.142;2022-07-29T13:58:54;6.93;;;4.50;;
66559;SDS011;53413;49.878;8.142;2022-07-29T14:01:19;6.78;;;4.35;;
66559;SDS011;53413;49.878;8.142;2022-07-29T14:03:45;6.60;;;4.40;;
66559;SDS011;53413;49.878;8.142;2022-07-29T14:06:10;8.30;;;4.03;;
66559;SDS011;53413;49.878;8.142;2022-07-29T14:08:36;7.25;;;4.60;;
66559;SDS011;53413;49.878;8.142;2022-07-29T14:11:01;8.73;;;4.63;;
66559;SDS011;53413;49.878;8.142;2022-07-29T14:13:26;7.20;;;4.30;;
66559;SDS011;53413;49.878;8.142;2022-07-29T14:15:52;14.67;;;5.20;;
66559;SDS011;53413;49.878;8.142;2022-07-29T14:18:17;8.55;;;4.85;;
66559;SDS011;53413;49.878;8.142;2022-07-29T14:20:43;7.87;;;4.70;;
66559;SDS011;53413;49.878;8.142;2022-07-29T14:23:08;6.20;;;4.47;;
66559;SDS011;53413;49.878;8.142;2022-07-29T14:25:34;5.60;;;4.00;;
66559;SDS011;53413;49.878;8.142;2022-07-29T14:27:59;8.10;;;4.50;;
66559;SDS011;53413;49.878;8.142;2022-07-29T14:30:24;6.93;;;4.50;;
66559;SDS011;53413;49.878;8.142;2022-07-29T14:32:50;9.67;;;4.40;;
66559;SDS011;53413;49.878;8.142;2022-07-29T14:35:15;7.40;;;4.67;;
66559;SDS011;53413;49.878;8.142;2022-07-29T14:37:41;7.47;;;4.43;;
66559;SDS011;53413;49.878;8.142;2022-07-29T14:40:07;7.73;;;4.50;;
66559;SDS011;53413;49.878;8.142;2022-07-29T14:42:33;8.10;;;4.50;;
66559;SDS011;53413;49.878;8.142;2022-07-29T14:44:58;6.43;;;4.40;;
66559;SDS011;53413;49.878;8.142;2022-07-29T14:47:24;9.18;;;4.50;;
66559;SDS011;53413;49.878;8.142;2022-07-29T14:49:49;5.80;;;4.30;;
66559;SDS011;53413;49.878;8.142;2022-07-29T14:52:15;5.50;;;4.20;;
66559;SDS011;53413;49.878;8.142;2022-07-29T14:54:40;7.28;;;4.40;;
66559;SDS011;53413;49.878;8.142;2022-07-29T14:57:06;6.77;;;4.17;;
66559;SDS011;53413;49.878;8.142;2022-07-29T14:59:31;7.20;;;4.50;;
66559;SDS011;53413;49.878;8.142;2022-07-29T15:01:56;6.57;;;4.00;;
66559;SDS011;53413;49.878;8.142;2022-07-29T15:04:22;7.00;;;4.40;;
66559;SDS011;53413;49.878;8.142;2022-07-29T15:06:47;6.70;;;4.07;;
66559;SDS011;53413;49.878;8.142;2022-07-29T15:09:13;6.50;;;4.30;;
66559;SDS011;53413;49.878;8.142;2022-07-29T15:11:38;7.13;;;4.33;;
66559;SDS011;53413;49.878;8.142;2022-07-29T15:14:04;6.10;;;4.50;;
66559;SDS011;53413;49.878;8.142;2022-07-29T15:16:30;6.50;;;4.20;;
66559;SDS011;53413;49.878;8.142;2022-07-29T15:18:56;6.68;;;4.13;;
66559;SDS011;53413;49.878;8.142;2022-07-29T15:21:22;5.80;;;4.10;;
66559;SDS011;53413;49.878;8.142;2022-07-29T15:23:48;6.63;;;4.13;;
66559;SDS011;53413;49.878;8.142;2022-07-29T15:26:14;8.10;;;4.45;;
66559;SDS011;53413;49.878;8.142;2022-07-29T15:28:39;7.53;;;4.20;;
66559;SDS011;53413;49.878;8.142;2022-07-29T15:31:05;5.90;;;4.10;;
66559;SDS011;53413;49.878;8.142;2022-07-29T15:33:30;6.03;;;4.00;;
66559;SDS011;53413;49.878;8.142;2022-07-29T15:35:56;7.78;;;4.22;;
66559;SDS011;53413;49.878;8.142;2022-07-29T15:38:21;5.87;;;4.00;;